createdAt,value
2023-05-22T00:00:00.948Z,22.21
2023-05-22T00:01:00.935Z,22.21
2023-05-22T00:02:00.973Z,22.21
2023-05-22T00:03:01.042Z,22.21
2023-05-22T00:04:00.927Z,22.21
2023-05-22T00:05:00.981Z,22.21
2023-05-22T00:06:00.944Z,22.21
2023-05-22T00:07:00.912Z,22.21
2023-05-22T00:08:00.960Z,22.21
2023-05-22T00:09:00.934Z,22.20
2023-05-22T00:10:00.899Z,22.21
2023-05-22T00:11:00.922Z,22.21
2023-05-22T00:12:00.923Z,22.20
2023-05-22T00:13:00.929Z,22.21
2023-05-22T00:14:00.921Z,22.20
2023-05-22T00:15:00.899Z,22.20
2023-05-22T00:16:00.934Z,22.20
2023-05-22T00:17:00.941Z,22.20
2023-05-22T00:18:01.088Z,22.20
2023-05-22T00:19:01.024Z,22.20
2023-05-22T00:20:00.940Z,22.19
2023-05-22T00:21:00.907Z,22.20
2023-05-22T00:22:00.896Z,22.19
2023-05-22T00:23:00.924Z,22.19
2023-05-22T00:24:00.931Z,22.19
2023-05-22T00:25:00.894Z,22.20
2023-05-22T00:26:00.920Z,22.19
2023-05-22T00:27:00.921Z,22.19
2023-05-22T00:28:00.945Z,22.19
2023-05-22T00:29:00.908Z,22.19
2023-05-22T00:30:00.930Z,22.19
2023-05-22T00:31:00.929Z,22.19
2023-05-22T00:32:00.926Z,22.19
2023-05-22T00:33:00.901Z,22.18
2023-05-22T00:34:00.961Z,22.19
2023-05-22T00:35:00.929Z,22.18
2023-05-22T00:36:00.928Z,22.18
2023-05-22T00:37:00.885Z,22.18
2023-05-22T00:38:00.914Z,22.18
2023-05-22T00:39:00.913Z,22.18
2023-05-22T00:40:00.891Z,22.18
2023-05-22T00:41:00.885Z,22.18
2023-05-22T00:42:00.895Z,22.19
2023-05-22T00:43:00.872Z,22.18
2023-05-22T00:44:00.882Z,22.18
2023-05-22T00:45:00.881Z,22.18
2023-05-22T00:46:00.881Z,22.18
2023-05-22T00:47:00.870Z,22.17
2023-05-22T00:48:00.875Z,22.17
2023-05-22T00:49:00.885Z,22.18
2023-05-22T00:50:00.888Z,22.17
2023-05-22T00:51:00.857Z,22.18
2023-05-22T00:52:00.875Z,22.17
2023-05-22T00:53:00.914Z,22.17
2023-05-22T00:54:00.917Z,22.16
2023-05-22T00:55:00.881Z,22.17
2023-05-22T00:56:00.905Z,22.17
2023-05-22T00:57:00.892Z,22.16
2023-05-22T00:58:00.877Z,22.16
2023-05-22T00:59:00.900Z,22.16
2023-05-22T01:00:00.901Z,22.16
2023-05-22T01:01:00.904Z,22.16
2023-05-22T01:02:00.914Z,22.15
2023-05-22T01:03:00.993Z,22.15
2023-05-22T01:04:01.064Z,22.15
2023-05-22T01:05:00.892Z,22.15
2023-05-22T01:06:00.962Z,22.16
2023-05-22T01:07:00.899Z,22.16
2023-05-22T01:08:00.910Z,22.16
2023-05-22T01:09:00.908Z,22.15
2023-05-22T01:10:00.924Z,22.15
2023-05-22T01:11:00.893Z,22.15
2023-05-22T01:12:00.924Z,22.15
2023-05-22T01:13:00.936Z,22.15
2023-05-22T01:14:00.912Z,22.15
2023-05-22T01:15:00.921Z,22.15
2023-05-22T01:16:00.961Z,22.15
2023-05-22T01:17:00.947Z,22.14
2023-05-22T01:18:00.965Z,22.15
2023-05-22T01:19:01.014Z,22.14
2023-05-22T01:20:00.924Z,22.15
2023-05-22T01:21:01.457Z,22.15
2023-05-22T01:22:00.917Z,22.14
2023-05-22T01:23:00.978Z,22.14
2023-05-22T01:24:00.909Z,22.15
2023-05-22T01:25:00.921Z,22.15
2023-05-22T01:26:00.945Z,22.14
2023-05-22T01:27:00.930Z,22.14
2023-05-22T01:28:00.958Z,22.14
2023-05-22T01:29:00.936Z,22.14
2023-05-22T01:30:00.964Z,22.14
2023-05-22T01:31:00.948Z,22.14
2023-05-22T01:32:00.977Z,22.14
2023-05-22T01:33:01.130Z,22.14
2023-05-22T01:34:01.043Z,22.13
2023-05-22T01:35:01.003Z,22.13
2023-05-22T01:36:01.028Z,22.13
2023-05-22T01:37:00.992Z,22.13
2023-05-22T01:38:01.063Z,22.13
2023-05-22T01:39:00.988Z,22.13
2023-05-22T01:40:01.001Z,22.13
2023-05-22T01:41:01.011Z,22.12
2023-05-22T01:42:01.025Z,22.13
2023-05-22T01:43:01.018Z,22.13
2023-05-22T01:44:01.035Z,22.13
2023-05-22T01:45:01.074Z,22.13
2023-05-22T01:46:01.085Z,22.12
2023-05-22T01:47:01.032Z,22.12
2023-05-22T01:48:01.151Z,22.12
2023-05-22T01:49:01.111Z,22.12
2023-05-22T01:50:01.063Z,22.12
2023-05-22T01:51:01.085Z,22.12
2023-05-22T01:52:01.088Z,22.11
2023-05-22T01:53:01.130Z,22.11
2023-05-22T01:54:01.145Z,22.12
2023-05-22T01:55:01.152Z,22.13
2023-05-22T01:56:01.120Z,22.12
2023-05-22T01:57:01.116Z,22.12
2023-05-22T01:58:01.164Z,22.12
2023-05-22T01:59:01.147Z,22.12
2023-05-22T02:00:01.252Z,22.11
2023-05-22T02:01:01.335Z,22.12
2023-05-22T02:02:01.181Z,22.12
2023-05-22T02:03:01.596Z,22.12
2023-05-22T02:04:01.156Z,22.12
2023-05-22T02:05:01.170Z,22.12
2023-05-22T02:06:01.176Z,22.12
2023-05-22T02:07:01.252Z,22.12
2023-05-22T02:08:01.241Z,22.11
2023-05-22T02:09:01.250Z,22.11
2023-05-22T02:10:01.334Z,22.11
2023-05-22T02:11:01.227Z,22.11
2023-05-22T02:12:01.261Z,22.11
2023-05-22T02:13:01.257Z,22.11
2023-05-22T02:14:01.246Z,22.11
2023-05-22T02:15:01.247Z,22.11
2023-05-22T02:16:01.363Z,22.11
2023-05-22T02:17:01.283Z,22.10
2023-05-22T02:18:01.317Z,22.11
2023-05-22T02:19:01.312Z,22.10
2023-05-22T02:20:01.309Z,22.10
2023-05-22T02:21:01.309Z,22.10
2023-05-22T02:22:01.346Z,22.10
2023-05-22T02:23:01.315Z,22.10
2023-05-22T02:24:01.304Z,22.10
2023-05-22T02:25:01.309Z,22.10
2023-05-22T02:26:01.345Z,22.10
2023-05-22T02:27:01.344Z,22.10
2023-05-22T02:28:01.402Z,22.09
2023-05-22T02:29:01.371Z,22.10
2023-05-22T02:30:01.406Z,22.10
2023-05-22T02:31:01.402Z,22.09
2023-05-22T02:32:01.403Z,22.09
2023-05-22T02:33:01.424Z,22.10
2023-05-22T02:34:01.375Z,22.10
2023-05-22T02:35:01.393Z,22.09
2023-05-22T02:36:01.353Z,22.09
2023-05-22T02:37:01.400Z,22.10
2023-05-22T02:38:01.402Z,22.10
2023-05-22T02:39:01.381Z,22.09
2023-05-22T02:40:01.442Z,22.09
2023-05-22T02:41:01.391Z,22.09
2023-05-22T02:42:01.446Z,22.09
2023-05-22T02:43:01.396Z,22.09
2023-05-22T02:44:01.415Z,22.09
2023-05-22T02:45:01.445Z,22.09
2023-05-22T02:46:01.507Z,22.09
2023-05-22T02:47:01.499Z,22.08
2023-05-22T02:48:01.537Z,22.09
2023-05-22T02:49:01.445Z,22.08
2023-05-22T02:50:01.485Z,22.08
2023-05-22T02:51:01.526Z,22.08
2023-05-22T02:52:01.509Z,22.09
2023-05-22T02:53:01.511Z,22.08
2023-05-22T02:54:01.533Z,22.09
2023-05-22T02:55:01.543Z,22.08
2023-05-22T02:56:01.626Z,22.08
2023-05-22T02:57:01.597Z,22.08
2023-05-22T02:58:01.559Z,22.08
2023-05-22T02:59:01.589Z,22.09
2023-05-22T03:00:01.646Z,22.08
2023-05-22T03:01:01.623Z,22.07
2023-05-22T03:02:01.646Z,22.08
2023-05-22T03:03:01.774Z,22.08
2023-05-22T03:04:01.688Z,22.07
2023-05-22T03:05:01.651Z,22.07
2023-05-22T03:06:01.696Z,22.07
2023-05-22T03:07:01.679Z,22.07
2023-05-22T03:08:01.673Z,22.07
2023-05-22T03:09:01.680Z,22.07
2023-05-22T03:10:01.700Z,22.07
2023-05-22T03:11:01.694Z,22.07
2023-05-22T03:12:01.715Z,22.08
2023-05-22T03:13:01.726Z,22.08
2023-05-22T03:14:01.720Z,22.07
2023-05-22T03:15:01.768Z,22.07
2023-05-22T03:16:01.811Z,22.07
2023-05-22T03:17:01.770Z,22.07
2023-05-22T03:18:01.855Z,22.07
2023-05-22T03:19:01.817Z,22.08
2023-05-22T03:20:01.832Z,22.07
2023-05-22T03:21:01.826Z,22.07
2023-05-22T03:22:01.863Z,22.07
2023-05-22T03:23:01.871Z,22.07
2023-05-22T03:24:01.880Z,22.06
2023-05-22T03:25:01.892Z,22.07
2023-05-22T03:26:01.895Z,22.06
2023-05-22T03:27:01.898Z,22.07
2023-05-22T03:28:01.917Z,22.06
2023-05-22T03:29:01.964Z,22.06
2023-05-22T03:30:01.940Z,22.06
2023-05-22T03:31:01.973Z,22.07
2023-05-22T03:32:01.934Z,22.07
2023-05-22T03:33:01.988Z,22.06
2023-05-22T03:34:02.094Z,22.06
2023-05-22T03:35:02.017Z,22.06
2023-05-22T03:36:01.994Z,22.06
2023-05-22T03:37:02.006Z,22.05
2023-05-22T03:38:02.034Z,22.06
2023-05-22T03:39:02.038Z,22.06
2023-05-22T03:40:02.057Z,22.06
2023-05-22T03:41:02.057Z,22.06
2023-05-22T03:42:02.074Z,22.05
2023-05-22T03:43:02.096Z,22.05
2023-05-22T03:44:02.122Z,22.05
2023-05-22T03:45:02.129Z,22.05
2023-05-22T03:46:02.284Z,22.05
2023-05-22T03:47:02.137Z,22.05
2023-05-22T03:48:02.281Z,22.05
2023-05-22T03:49:02.168Z,22.06
2023-05-22T03:50:02.232Z,22.06
2023-05-22T03:51:02.229Z,22.05
2023-05-22T03:52:02.227Z,22.05
2023-05-22T03:53:02.244Z,22.05
2023-05-22T03:54:02.246Z,22.04
2023-05-22T03:55:02.253Z,22.05
2023-05-22T03:56:02.259Z,22.05
2023-05-22T03:57:02.268Z,22.05
2023-05-22T03:58:02.319Z,22.06
2023-05-22T03:59:02.279Z,22.05
2023-05-22T04:00:02.284Z,22.05
2023-05-22T04:01:02.330Z,22.05
2023-05-22T04:02:02.359Z,22.05
2023-05-22T04:03:02.379Z,22.04
2023-05-22T04:04:02.371Z,22.06
2023-05-22T04:05:02.409Z,22.05
2023-05-22T04:06:02.396Z,22.05
2023-05-22T04:07:02.396Z,22.05
2023-05-22T04:08:02.404Z,22.04
2023-05-22T04:09:02.450Z,22.05
2023-05-22T04:10:02.477Z,22.05
2023-05-22T04:11:02.480Z,22.05
2023-05-22T04:12:02.466Z,22.05
2023-05-22T04:13:02.510Z,22.05
2023-05-22T04:14:02.522Z,22.05
2023-05-22T04:15:02.544Z,22.05
2023-05-22T04:16:02.611Z,22.05
2023-05-22T04:17:02.596Z,22.05
2023-05-22T04:18:02.685Z,22.05
2023-05-22T04:19:02.617Z,22.04
2023-05-22T04:20:02.608Z,22.05
2023-05-22T04:21:02.640Z,22.05
2023-05-22T04:22:02.651Z,22.05
2023-05-22T04:23:02.644Z,22.05
2023-05-22T04:24:02.684Z,22.05
2023-05-22T04:25:02.687Z,22.05
2023-05-22T04:26:02.709Z,22.05
2023-05-22T04:27:02.708Z,22.05
2023-05-22T04:28:02.718Z,22.05
2023-05-22T04:29:02.768Z,22.05
2023-05-22T04:30:02.787Z,22.05
2023-05-22T04:31:02.811Z,22.05
2023-05-22T04:32:02.823Z,22.05
2023-05-22T04:33:02.837Z,22.05
2023-05-22T04:34:02.836Z,22.05
2023-05-22T04:35:02.845Z,22.05
2023-05-22T04:36:02.928Z,22.06
2023-05-22T04:37:02.869Z,22.05
2023-05-22T04:38:02.910Z,22.05
2023-05-22T04:39:02.932Z,22.05
2023-05-22T04:40:02.967Z,22.06
2023-05-22T04:41:02.964Z,22.05
2023-05-22T04:42:02.941Z,22.05
2023-05-22T04:43:02.952Z,22.06
2023-05-22T04:44:02.969Z,22.06
2023-05-22T04:45:03.030Z,22.06
2023-05-22T04:46:03.024Z,22.06
2023-05-22T04:47:04.730Z,22.06
2023-05-22T04:48:03.227Z,22.06
2023-05-22T04:49:03.045Z,22.06
2023-05-22T04:50:03.019Z,22.07
2023-05-22T04:51:03.001Z,22.06
2023-05-22T04:52:02.984Z,22.07
2023-05-22T04:53:03.011Z,22.06
2023-05-22T04:54:03.106Z,22.07
2023-05-22T04:55:04.601Z,22.07
2023-05-22T04:56:02.995Z,22.07
2023-05-22T04:57:02.972Z,22.07
2023-05-22T04:58:03.022Z,22.07
2023-05-22T04:59:02.948Z,22.08
2023-05-22T05:00:02.955Z,22.07
2023-05-22T05:01:02.945Z,22.07
2023-05-22T05:02:02.926Z,22.08
2023-05-22T05:03:03.032Z,22.08
2023-05-22T05:04:03.100Z,22.08
2023-05-22T05:05:02.885Z,22.08
2023-05-22T05:06:02.898Z,22.07
2023-05-22T05:07:02.911Z,22.07
2023-05-22T05:08:02.864Z,22.08
2023-05-22T05:09:02.874Z,22.08
2023-05-22T05:10:02.960Z,22.08
2023-05-22T05:11:02.886Z,22.08
2023-05-22T05:12:02.849Z,22.07
2023-05-22T05:13:02.852Z,22.08
2023-05-22T05:14:02.860Z,22.08
2023-05-22T05:15:02.862Z,22.08
2023-05-22T05:16:02.869Z,22.08
2023-05-22T05:17:02.930Z,22.07
2023-05-22T05:18:02.817Z,22.07
2023-05-22T05:19:02.818Z,22.07
2023-05-22T05:20:02.810Z,22.07
2023-05-22T05:21:02.854Z,22.07
2023-05-22T05:22:02.816Z,22.08
2023-05-22T05:23:02.785Z,22.08
2023-05-22T05:24:02.772Z,22.08
2023-05-22T05:25:02.785Z,22.09
2023-05-22T05:26:02.750Z,22.09
2023-05-22T05:27:02.783Z,22.09
2023-05-22T05:28:02.724Z,22.11
2023-05-22T05:29:02.722Z,22.10
2023-05-22T05:30:02.778Z,22.11
2023-05-22T05:31:02.725Z,22.11
2023-05-22T05:32:02.760Z,22.11
2023-05-22T05:33:02.724Z,22.11
2023-05-22T05:34:02.705Z,22.12
2023-05-22T05:35:02.687Z,22.12
2023-05-22T05:36:02.698Z,22.12
2023-05-22T05:37:02.665Z,22.12
2023-05-22T05:38:02.663Z,22.13
2023-05-22T05:39:02.689Z,22.13
2023-05-22T05:40:02.815Z,22.13
2023-05-22T05:41:02.677Z,22.13
2023-05-22T05:42:02.619Z,22.14
2023-05-22T05:43:02.642Z,22.15
2023-05-22T05:44:02.627Z,22.15
2023-05-22T05:45:02.614Z,22.15
2023-05-22T05:46:02.669Z,22.15
2023-05-22T05:47:02.586Z,22.16
2023-05-22T05:48:03.103Z,22.15
2023-05-22T05:49:02.584Z,22.16
2023-05-22T05:50:02.600Z,22.16
2023-05-22T05:51:02.578Z,22.15
2023-05-22T05:52:02.540Z,22.16
2023-05-22T05:53:02.575Z,22.16
2023-05-22T05:54:02.586Z,22.16
2023-05-22T05:55:02.557Z,22.15
2023-05-22T05:56:02.526Z,22.15
2023-05-22T05:57:02.529Z,22.16
2023-05-22T05:58:02.504Z,22.15
2023-05-22T05:59:02.515Z,22.15
2023-05-22T06:00:02.529Z,22.15
2023-05-22T06:01:02.476Z,22.15
2023-05-22T06:02:02.513Z,22.16
2023-05-22T06:03:02.544Z,22.15
2023-05-22T06:04:02.502Z,22.15
2023-05-22T06:05:02.559Z,22.16
2023-05-22T06:06:02.540Z,22.15
2023-05-22T06:07:02.449Z,22.14
2023-05-22T06:08:02.440Z,22.14
2023-05-22T06:09:02.456Z,22.14
2023-05-22T06:10:02.487Z,22.14
2023-05-22T06:11:02.443Z,22.14
2023-05-22T06:12:02.437Z,22.14
2023-05-22T06:13:02.399Z,22.14
2023-05-22T06:14:02.416Z,22.14
2023-05-22T06:15:02.420Z,22.14
2023-05-22T06:16:05.853Z,22.15
2023-05-22T06:17:02.408Z,22.15
2023-05-22T06:18:02.420Z,22.15
2023-05-22T06:19:02.406Z,22.15
2023-05-22T06:20:02.351Z,22.15
2023-05-22T06:21:02.361Z,22.15
2023-05-22T06:22:02.337Z,22.14
2023-05-22T06:23:02.386Z,22.15
2023-05-22T06:24:02.363Z,22.15
2023-05-22T06:25:02.361Z,22.15
2023-05-22T06:26:02.337Z,22.14
2023-05-22T06:27:02.329Z,22.15
2023-05-22T06:28:02.360Z,22.15
2023-05-22T06:29:02.309Z,22.14
2023-05-22T06:30:04.358Z,22.15
2023-05-22T06:31:02.365Z,22.15
2023-05-22T06:32:02.527Z,22.15
2023-05-22T06:33:02.490Z,22.15
2023-05-22T06:34:02.542Z,22.16
2023-05-22T06:35:02.431Z,22.15
2023-05-22T06:36:02.404Z,22.15
2023-05-22T06:37:02.429Z,22.15
2023-05-22T06:38:02.436Z,22.15
2023-05-22T06:39:02.486Z,22.15
2023-05-22T06:40:02.476Z,22.15
2023-05-22T06:41:02.489Z,22.16
2023-05-22T06:42:02.549Z,22.15
2023-05-22T06:43:02.563Z,22.14
2023-05-22T06:44:02.491Z,22.16
2023-05-22T06:45:02.544Z,22.16
2023-05-22T06:46:02.566Z,22.16
2023-05-22T06:47:02.515Z,22.15
2023-05-22T06:48:02.578Z,22.16
2023-05-22T06:49:02.565Z,22.17
2023-05-22T06:50:02.542Z,22.16
2023-05-22T06:51:02.608Z,22.16
2023-05-22T06:52:05.080Z,22.16
2023-05-22T06:53:02.558Z,22.17
2023-05-22T06:54:02.554Z,22.18
2023-05-22T06:55:02.556Z,22.18
2023-05-22T06:56:02.556Z,22.18
2023-05-22T06:57:02.576Z,22.18
2023-05-22T06:58:02.595Z,22.18
2023-05-22T06:59:03.420Z,22.19
2023-05-22T07:00:02.517Z,22.19
2023-05-22T07:01:02.547Z,22.20
2023-05-22T07:02:02.526Z,22.22
2023-05-22T07:03:02.557Z,22.24
2023-05-22T07:04:02.512Z,22.25
2023-05-22T07:05:02.472Z,22.27
2023-05-22T07:06:02.504Z,22.28
2023-05-22T07:07:02.494Z,22.30
2023-05-22T07:08:02.593Z,22.30
2023-05-22T07:09:02.457Z,22.31
2023-05-22T07:10:02.452Z,22.32
2023-05-22T07:11:02.452Z,22.33
2023-05-22T07:12:02.421Z,22.35
2023-05-22T07:13:02.440Z,22.36
2023-05-22T07:14:02.407Z,22.38
2023-05-22T07:15:02.392Z,22.38
2023-05-22T07:16:02.478Z,22.40
2023-05-22T07:17:02.384Z,22.42
2023-05-22T07:18:02.414Z,22.43
2023-05-22T07:19:02.412Z,22.44
2023-05-22T07:20:02.367Z,22.46
2023-05-22T07:21:02.372Z,22.47
2023-05-22T07:22:02.374Z,22.49
2023-05-22T07:23:02.380Z,22.49
2023-05-22T07:24:02.345Z,22.50
2023-05-22T07:25:02.328Z,22.51
2023-05-22T07:26:02.322Z,22.51
2023-05-22T07:27:02.327Z,22.53
2023-05-22T07:28:02.309Z,22.53
2023-05-22T07:29:02.400Z,22.54
2023-05-22T07:30:02.484Z,22.56
2023-05-22T07:31:02.489Z,22.56
2023-05-22T07:32:02.604Z,22.58
2023-05-22T07:33:02.681Z,22.58
2023-05-22T07:34:02.680Z,22.60
2023-05-22T07:35:02.757Z,22.60
2023-05-22T07:36:02.784Z,22.61
2023-05-22T07:37:02.888Z,22.61
2023-05-22T07:38:02.966Z,22.63
2023-05-22T07:39:03.002Z,22.63
2023-05-22T07:40:03.026Z,22.64
2023-05-22T07:41:03.103Z,22.65
2023-05-22T07:42:03.162Z,22.66
2023-05-22T07:43:03.188Z,22.66
2023-05-22T07:44:03.318Z,22.67
2023-05-22T07:45:03.286Z,22.67
2023-05-22T07:46:03.593Z,22.67
2023-05-22T07:47:03.395Z,22.67
2023-05-22T07:48:03.645Z,22.67
2023-05-22T07:49:03.527Z,22.67
2023-05-22T07:50:03.605Z,22.67
2023-05-22T07:51:03.714Z,22.68
2023-05-22T07:52:03.744Z,22.67
2023-05-22T07:53:03.813Z,22.67
2023-05-22T07:54:03.861Z,22.67
2023-05-22T07:55:03.906Z,22.66
2023-05-22T07:56:03.978Z,22.66
2023-05-22T07:57:04.101Z,22.66
2023-05-22T07:58:04.118Z,22.66
2023-05-22T07:59:04.173Z,22.66
2023-05-22T08:00:04.275Z,22.65
2023-05-22T08:01:04.573Z,22.65
2023-05-22T08:02:04.532Z,22.65
2023-05-22T08:03:04.541Z,22.65
2023-05-22T08:04:04.686Z,22.64
2023-05-22T08:05:04.656Z,22.64
2023-05-22T08:06:04.633Z,22.64
2023-05-22T08:07:04.704Z,22.63
2023-05-22T08:08:04.803Z,22.64
2023-05-22T08:09:04.845Z,22.63
2023-05-22T08:10:04.890Z,22.63
2023-05-22T08:11:05.069Z,22.63
2023-05-22T08:12:05.000Z,22.62
2023-05-22T08:13:05.013Z,22.61
2023-05-22T08:14:04.995Z,22.61
2023-05-22T08:15:05.007Z,22.61
2023-05-22T08:16:04.976Z,22.60
2023-05-22T08:17:04.985Z,22.60
2023-05-22T08:18:05.010Z,22.60
2023-05-22T08:19:05.037Z,22.59
2023-05-22T08:20:05.046Z,22.59
2023-05-22T08:21:04.939Z,22.59
2023-05-22T08:22:04.911Z,22.59
2023-05-22T08:23:04.935Z,22.59
2023-05-22T08:24:04.942Z,22.59
2023-05-22T08:25:04.923Z,22.58
2023-05-22T08:26:04.888Z,22.58
2023-05-22T08:27:04.909Z,22.58
2023-05-22T08:28:04.908Z,22.58
2023-05-22T08:29:04.891Z,22.58
2023-05-22T08:30:04.887Z,22.58
2023-05-22T08:31:04.941Z,22.58
2023-05-22T08:32:04.978Z,22.57
2023-05-22T08:33:04.894Z,22.57
2023-05-22T08:34:05.038Z,22.57
2023-05-22T08:35:04.831Z,22.57
2023-05-22T08:36:04.819Z,22.57
2023-05-22T08:37:04.836Z,22.57
2023-05-22T08:38:04.862Z,22.56
2023-05-22T08:39:04.785Z,22.57
2023-05-22T08:40:04.838Z,22.56
2023-05-22T08:41:04.785Z,22.56
2023-05-22T08:42:04.773Z,22.56
2023-05-22T08:43:04.794Z,22.56
2023-05-22T08:44:04.767Z,22.56
2023-05-22T08:45:04.777Z,22.56
2023-05-22T08:46:04.757Z,22.56
2023-05-22T08:47:04.771Z,22.56
2023-05-22T08:48:04.785Z,22.56
2023-05-22T08:49:04.730Z,22.56
2023-05-22T08:50:04.732Z,22.55
2023-05-22T08:51:05.647Z,22.55
2023-05-22T08:52:04.796Z,22.54
2023-05-22T08:53:04.867Z,22.55
2023-05-22T08:54:04.878Z,22.55
2023-05-22T08:55:04.899Z,22.55
2023-05-22T08:56:04.975Z,22.55
2023-05-22T08:57:04.997Z,22.55
2023-05-22T08:58:05.046Z,22.56
2023-05-22T08:59:05.077Z,22.55
2023-05-22T09:00:05.148Z,22.55
2023-05-22T09:01:05.283Z,22.55
2023-05-22T09:02:06.860Z,22.58
2023-05-22T09:03:05.436Z,22.60
2023-05-22T09:04:05.426Z,22.63
2023-05-22T09:05:06.393Z,22.65
2023-05-22T09:06:05.372Z,22.66
2023-05-22T09:07:05.371Z,22.68
2023-05-22T09:08:15.980Z,22.66
2023-05-22T09:09:06.380Z,22.69
2023-05-22T09:10:05.441Z,22.70
2023-05-22T09:11:05.379Z,22.73
2023-05-22T09:12:05.332Z,22.75
2023-05-22T09:13:05.391Z,22.77
2023-05-22T09:14:05.316Z,22.78
2023-05-22T09:15:05.318Z,22.80
2023-05-22T09:16:05.299Z,22.82
2023-05-22T09:17:05.392Z,22.83
2023-05-22T09:18:05.364Z,22.85
2023-05-22T09:19:05.347Z,22.86
2023-05-22T09:20:05.296Z,22.87
2023-05-22T09:21:09.053Z,22.89
2023-05-22T09:22:06.333Z,22.90
2023-05-22T09:23:05.309Z,22.92
2023-05-22T09:24:05.289Z,22.93
2023-05-22T09:25:05.277Z,22.95
2023-05-22T09:26:05.255Z,22.96
2023-05-22T09:27:05.319Z,22.98
2023-05-22T09:28:05.289Z,22.98
2023-05-22T09:29:05.257Z,23.00
2023-05-22T09:30:05.233Z,23.02
2023-05-22T09:31:05.368Z,23.03
2023-05-22T09:32:05.244Z,23.04
2023-05-22T09:33:05.279Z,23.05
2023-05-22T09:34:05.245Z,23.05
2023-05-22T09:35:05.257Z,23.07
2023-05-22T09:36:05.203Z,23.09
2023-05-22T09:37:05.225Z,23.10
2023-05-22T09:38:05.271Z,23.11
2023-05-22T09:39:05.201Z,23.13
2023-05-22T09:40:05.164Z,23.14
2023-05-22T09:41:06.125Z,23.14
2023-05-22T09:42:05.179Z,23.16
2023-05-22T09:43:05.153Z,23.17
2023-05-22T09:44:05.166Z,23.18
2023-05-22T09:45:05.134Z,23.18
2023-05-22T09:46:05.198Z,23.17
2023-05-22T09:47:05.117Z,23.18
2023-05-22T09:48:05.219Z,23.20
2023-05-22T09:49:05.132Z,23.22
2023-05-22T09:50:05.133Z,23.23
2023-05-22T09:51:05.122Z,23.24
2023-05-22T09:52:05.132Z,23.25
2023-05-22T09:53:05.187Z,23.25
2023-05-22T09:54:05.173Z,23.25
2023-05-22T09:55:05.151Z,23.26
2023-05-22T09:56:05.070Z,23.25
2023-05-22T09:57:05.066Z,23.26
2023-05-22T09:58:05.064Z,23.25
2023-05-22T09:59:05.064Z,23.25
2023-05-22T10:00:06.041Z,23.24
2023-05-22T10:01:05.040Z,23.24
2023-05-22T10:02:05.081Z,23.24
2023-05-22T10:03:05.074Z,23.23
2023-05-22T10:04:05.116Z,23.23
2023-05-22T10:05:05.033Z,23.22
2023-05-22T10:06:05.028Z,23.21
2023-05-22T10:07:05.017Z,23.22
2023-05-22T10:08:04.981Z,23.21
2023-05-22T10:09:05.021Z,23.19
2023-05-22T10:10:04.970Z,23.19
2023-05-22T10:11:05.024Z,23.19
2023-05-22T10:12:04.987Z,23.18
2023-05-22T10:13:04.965Z,23.18
2023-05-22T10:14:04.980Z,23.16
2023-05-22T10:15:04.939Z,23.17
2023-05-22T10:16:05.072Z,23.16
2023-05-22T10:17:04.986Z,23.15
2023-05-22T10:18:04.998Z,23.15
2023-05-22T10:19:04.992Z,23.14
2023-05-22T10:20:04.945Z,23.14
2023-05-22T10:21:04.936Z,23.14
2023-05-22T10:22:04.927Z,23.12
2023-05-22T10:23:04.911Z,23.13
2023-05-22T10:24:04.894Z,23.11
2023-05-22T10:25:04.910Z,23.10
2023-05-22T10:26:05.057Z,23.10
2023-05-22T10:27:04.961Z,23.10
2023-05-22T10:28:04.988Z,23.09
2023-05-22T10:29:05.015Z,23.08
2023-05-22T10:30:05.045Z,23.08
2023-05-22T10:31:05.090Z,23.08
2023-05-22T10:32:05.106Z,23.07
2023-05-22T10:33:05.240Z,23.07
2023-05-22T10:34:05.255Z,23.06
2023-05-22T10:35:05.182Z,23.06
2023-05-22T10:36:05.249Z,23.06
2023-05-22T10:37:15.987Z,23.05
2023-05-22T10:38:06.268Z,23.05
2023-05-22T10:39:05.342Z,23.04
2023-05-22T10:40:05.289Z,23.04
2023-05-22T10:41:05.228Z,23.04
2023-05-22T10:42:05.338Z,23.03
2023-05-22T10:43:05.269Z,23.03
2023-05-22T10:44:05.210Z,23.02
2023-05-22T10:45:05.211Z,23.03
2023-05-22T10:46:05.255Z,23.01
2023-05-22T10:47:05.210Z,23.02
2023-05-22T10:48:05.233Z,23.01
2023-05-22T10:49:05.202Z,23.01
2023-05-22T10:50:05.192Z,23.00
2023-05-22T10:51:05.198Z,23.00
2023-05-22T10:52:05.171Z,23.00
2023-05-22T10:53:05.646Z,22.99
2023-05-22T10:54:05.284Z,22.99
2023-05-22T10:55:05.289Z,22.99
2023-05-22T10:56:05.341Z,22.99
2023-05-22T10:57:05.392Z,22.98
2023-05-22T10:58:05.402Z,22.97
2023-05-22T10:59:05.467Z,22.98
2023-05-22T11:00:05.504Z,22.97
2023-05-22T11:01:05.535Z,22.97
2023-05-22T11:02:05.686Z,22.97
2023-05-22T11:03:17.369Z,22.97
2023-05-22T11:04:06.642Z,22.97
2023-05-22T11:05:05.623Z,22.96
2023-05-22T11:06:05.599Z,22.96
2023-05-22T11:07:05.664Z,22.95
2023-05-22T11:08:05.603Z,22.95
2023-05-22T11:09:05.593Z,22.95
2023-05-22T11:10:05.590Z,22.95
2023-05-22T11:11:05.582Z,22.95
2023-05-22T11:12:05.561Z,22.95
2023-05-22T11:13:05.558Z,22.94
2023-05-22T11:14:05.532Z,22.94
2023-05-22T11:15:05.566Z,22.94
2023-05-22T11:16:05.623Z,22.94
2023-05-22T11:17:05.704Z,22.94
2023-05-22T11:18:05.762Z,22.94
2023-05-22T11:19:21.094Z,22.94
2023-05-22T11:20:06.954Z,22.93
2023-05-22T11:21:05.733Z,22.93
2023-05-22T11:22:05.724Z,22.93
2023-05-22T11:23:05.761Z,22.93
2023-05-22T11:24:05.700Z,22.92
2023-05-22T11:25:05.713Z,22.93
2023-05-22T11:26:05.728Z,22.92
2023-05-22T11:27:05.716Z,22.93
2023-05-22T11:28:05.702Z,22.92
2023-05-22T11:29:05.736Z,22.92
2023-05-22T11:30:05.764Z,22.92
2023-05-22T11:31:05.781Z,22.92
2023-05-22T11:32:05.801Z,22.92
2023-05-22T11:33:05.897Z,22.91
2023-05-22T11:34:05.846Z,22.92
2023-05-22T11:35:05.923Z,22.92
2023-05-22T11:36:05.924Z,22.91
2023-05-22T11:37:06.012Z,22.91
2023-05-22T11:38:06.052Z,22.90
2023-05-22T11:39:06.092Z,22.89
2023-05-22T11:40:06.122Z,22.90
2023-05-22T11:41:06.247Z,22.91
2023-05-22T11:42:06.228Z,22.90
2023-05-22T11:43:06.723Z,22.90
2023-05-22T11:44:06.291Z,22.91
2023-05-22T11:45:06.351Z,22.91
2023-05-22T11:46:06.413Z,22.90
2023-05-22T11:47:06.456Z,22.90
2023-05-22T11:48:06.559Z,22.90
2023-05-22T11:49:06.516Z,22.91
2023-05-22T11:50:06.597Z,22.90
2023-05-22T11:51:06.615Z,22.90
2023-05-22T11:52:06.664Z,22.90
2023-05-22T11:53:06.699Z,22.89
2023-05-22T11:54:06.712Z,22.89
2023-05-22T11:55:06.794Z,22.89
2023-05-22T11:56:06.833Z,22.89
2023-05-22T11:57:06.871Z,22.89
2023-05-22T11:58:06.891Z,22.89
2023-05-22T11:59:06.946Z,22.90
2023-05-22T12:00:07.023Z,22.89
2023-05-22T12:01:07.020Z,22.89
2023-05-22T12:02:07.155Z,22.89
2023-05-22T12:03:07.253Z,22.89
2023-05-22T12:04:07.265Z,22.89
2023-05-22T12:05:07.239Z,22.90
2023-05-22T12:06:07.339Z,22.90
2023-05-22T12:07:07.301Z,22.90
2023-05-22T12:08:07.335Z,22.90
2023-05-22T12:09:07.375Z,22.90
2023-05-22T12:10:07.591Z,22.90
2023-05-22T12:11:07.513Z,22.90
2023-05-22T12:12:07.526Z,22.90
2023-05-22T12:13:07.596Z,22.91
2023-05-22T12:14:07.623Z,22.91
2023-05-22T12:15:07.746Z,22.92
2023-05-22T12:16:07.693Z,22.91
2023-05-22T12:17:07.757Z,22.92
2023-05-22T12:18:07.904Z,22.92
2023-05-22T12:19:07.945Z,22.93
2023-05-22T12:20:07.909Z,22.93
2023-05-22T12:21:07.931Z,22.93
2023-05-22T12:22:07.938Z,22.94
2023-05-22T12:23:07.995Z,22.94
2023-05-22T12:24:08.030Z,22.94
2023-05-22T12:25:08.112Z,22.95
2023-05-22T12:26:08.110Z,22.95
2023-05-22T12:27:08.178Z,22.96
2023-05-22T12:28:08.235Z,22.96
2023-05-22T12:29:08.243Z,22.96
2023-05-22T12:30:08.285Z,22.96
2023-05-22T12:31:08.333Z,22.97
2023-05-22T12:32:08.380Z,22.97
2023-05-22T12:33:08.483Z,22.97
2023-05-22T12:34:08.616Z,22.98
2023-05-22T12:35:08.511Z,22.98
2023-05-22T12:36:08.566Z,22.99
2023-05-22T12:37:08.640Z,22.99
2023-05-22T12:38:08.609Z,22.99
2023-05-22T12:39:08.672Z,23.00
2023-05-22T12:40:08.679Z,23.00
2023-05-22T12:41:08.734Z,23.01
2023-05-22T12:42:08.815Z,23.01
2023-05-22T12:43:08.796Z,23.02
2023-05-22T12:44:08.884Z,23.02
2023-05-22T12:45:08.875Z,23.03
2023-05-22T12:46:08.926Z,23.03
2023-05-22T12:47:08.947Z,23.03
2023-05-22T12:48:09.022Z,23.04
2023-05-22T12:49:09.009Z,23.04
2023-05-22T12:50:09.181Z,23.05
2023-05-22T12:51:09.056Z,23.05
2023-05-22T12:52:09.141Z,23.04